sensor_id;sensor_type;location;lat;lon;timestamp;P1;durP1;ratioP1;P2;durP2;ratioP2
36001;SDS011;22070;50.922;5.430;2022-07-05T00:02:20;2.97;;;2.13;;
36001;SDS011;22070;50.922;5.430;2022-07-05T00:04:46;2.33;;;2.00;;
36001;SDS011;22070;50.922;5.430;2022-07-05T00:07:12;3.70;;;1.87;;
36001;SDS011;22070;50.922;5.430;2022-07-05T00:09:48;2.25;;;1.67;;
36001;SDS011;22070;50.922;5.430;2022-07-05T00:12:14;3.38;;;1.92;;
36001;SDS011;22070;50.922;5.430;2022-07-05T00:14:40;3.72;;;2.13;;
36001;SDS011;22070;50.922;5.430;2022-07-05T00:17:07;1.98;;;1.67;;
36001;SDS011;22070;50.922;5.430;2022-07-05T00:19:33;3.43;;;1.77;;
36001;SDS011;22070;50.922;5.430;2022-07-05T00:21:58;3.07;;;1.70;;
36001;SDS011;22070;50.922;5.430;2022-07-05T00:24:25;4.03;;;1.80;;
36001;SDS011;22070;50.922;5.430;2022-07-05T00:26:50;1.83;;;1.63;;
36001;SDS011;22070;50.922;5.430;2022-07-05T00:29:16;2.20;;;1.80;;
36001;SDS011;22070;50.922;5.430;2022-07-05T00:31:42;2.40;;;1.77;;
36001;SDS011;22070;50.922;5.430;2022-07-05T00:34:08;6.10;;;1.77;;
36001;SDS011;22070;50.922;5.430;2022-07-05T00:36:34;2.38;;;1.83;;
36001;SDS011;22070;50.922;5.430;2022-07-05T00:39:00;3.63;;;1.95;;
36001;SDS011;22070;50.922;5.430;2022-07-05T00:41:25;3.73;;;2.37;;
36001;SDS011;22070;50.922;5.430;2022-07-05T00:43:59;5.43;;;2.17;;
36001;SDS011;22070;50.922;5.430;2022-07-05T00:46:26;2.30;;;2.00;;
36001;SDS011;22070;50.922;5.430;2022-07-05T00:48:53;4.72;;;2.17;;
36001;SDS011;22070;50.922;5.430;2022-07-05T00:51:20;3.80;;;1.75;;
36001;SDS011;22070;50.922;5.430;2022-07-05T00:53:47;2.35;;;2.15;;
36001;SDS011;22070;50.922;5.430;2022-07-05T00:56:14;4.60;;;2.10;;
36001;SDS011;22070;50.922;5.430;2022-07-05T00:58:40;2.10;;;1.90;;
36001;SDS011;22070;50.922;5.430;2022-07-05T01:01:06;3.37;;;2.33;;
36001;SDS011;22070;50.922;5.430;2022-07-05T01:03:34;3.47;;;2.20;;
36001;SDS011;22070;50.922;5.430;2022-07-05T01:06:05;4.35;;;2.55;;
36001;SDS011;22070;50.922;5.430;2022-07-05T01:08:33;5.70;;;2.13;;
36001;SDS011;22070;50.922;5.430;2022-07-05T01:11:00;2.72;;;2.10;;
36001;SDS011;22070;50.922;5.430;2022-07-05T01:13:26;2.38;;;2.17;;
36001;SDS011;22070;50.922;5.430;2022-07-05T01:15:52;3.70;;;2.10;;
36001;SDS011;22070;50.922;5.430;2022-07-05T01:18:19;3.08;;;1.90;;
36001;SDS011;22070;50.922;5.430;2022-07-05T01:20:47;2.53;;;2.20;;
36001;SDS011;22070;50.922;5.430;2022-07-05T01:23:14;3.65;;;2.30;;
36001;SDS011;22070;50.922;5.430;2022-07-05T01:25:40;2.20;;;2.10;;
36001;SDS011;22070;50.922;5.430;2022-07-05T01:28:06;1.93;;;1.80;;
36001;SDS011;22070;50.922;5.430;2022-07-05T01:30:34;2.58;;;2.30;;
36001;SDS011;22070;50.922;5.430;2022-07-05T01:33:00;8.30;;;2.53;;
36001;SDS011;22070;50.922;5.430;2022-07-05T01:35:27;3.47;;;2.40;;
36001;SDS011;22070;50.922;5.430;2022-07-05T01:37:52;3.40;;;2.55;;
36001;SDS011;22070;50.922;5.430;2022-07-05T01:40:18;3.58;;;2.47;;
36001;SDS011;22070;50.922;5.430;2022-07-05T01:42:45;2.70;;;2.13;;
36001;SDS011;22070;50.922;5.430;2022-07-05T01:45:11;2.97;;;2.15;;
36001;SDS011;22070;50.922;5.430;2022-07-05T01:47:38;4.53;;;2.80;;
36001;SDS011;22070;50.922;5.430;2022-07-05T01:50:09;3.25;;;2.78;;
36001;SDS011;22070;50.922;5.430;2022-07-05T01:52:42;2.67;;;2.13;;
36001;SDS011;22070;50.922;5.430;2022-07-05T01:55:10;3.13;;;2.72;;
36001;SDS011;22070;50.922;5.430;2022-07-05T01:57:36;3.80;;;2.17;;
36001;SDS011;22070;50.922;5.430;2022-07-05T02:00:02;2.83;;;2.50;;
36001;SDS011;22070;50.922;5.430;2022-07-05T02:02:28;2.45;;;2.25;;
36001;SDS011;22070;50.922;5.430;2022-07-05T02:04:53;3.10;;;2.50;;
36001;SDS011;22070;50.922;5.430;2022-07-05T02:07:19;2.88;;;2.58;;
36001;SDS011;22070;50.922;5.430;2022-07-05T02:09:45;6.50;;;3.70;;
36001;SDS011;22070;50.922;5.430;2022-07-05T02:12:10;5.03;;;2.55;;
36001;SDS011;22070;50.922;5.430;2022-07-05T02:14:36;5.55;;;1.77;;
36001;SDS011;22070;50.922;5.430;2022-07-05T02:17:02;5.05;;;2.60;;
36001;SDS011;22070;50.922;5.430;2022-07-05T02:19:28;3.63;;;2.17;;
36001;SDS011;22070;50.922;5.430;2022-07-05T02:21:53;3.42;;;2.60;;
36001;SDS011;22070;50.922;5.430;2022-07-05T02:24:20;5.93;;;3.20;;
36001;SDS011;22070;50.922;5.430;2022-07-05T02:26:47;2.88;;;2.67;;
36001;SDS011;22070;50.922;5.430;2022-07-05T02:29:13;5.32;;;3.20;;
36001;SDS011;22070;50.922;5.430;2022-07-05T02:31:39;2.72;;;2.53;;
36001;SDS011;22070;50.922;5.430;2022-07-05T02:34:04;2.92;;;2.60;;
36001;SDS011;22070;50.922;5.430;2022-07-05T02:36:30;4.72;;;2.90;;
36001;SDS011;22070;50.922;5.430;2022-07-05T02:38:55;2.97;;;2.70;;
36001;SDS011;22070;50.922;5.430;2022-07-05T02:41:21;3.25;;;2.80;;
36001;SDS011;22070;50.922;5.430;2022-07-05T02:43:47;3.42;;;3.13;;
36001;SDS011;22070;50.922;5.430;2022-07-05T02:46:13;4.93;;;2.90;;
36001;SDS011;22070;50.922;5.430;2022-07-05T02:48:39;5.07;;;2.60;;
36001;SDS011;22070;50.922;5.430;2022-07-05T02:51:05;3.40;;;2.83;;
36001;SDS011;22070;50.922;5.430;2022-07-05T02:53:31;3.28;;;2.33;;
36001;SDS011;22070;50.922;5.430;2022-07-05T02:55:56;4.25;;;3.00;;
36001;SDS011;22070;50.922;5.430;2022-07-05T02:58:22;3.40;;;3.03;;
36001;SDS011;22070;50.922;5.430;2022-07-05T03:00:48;3.33;;;3.03;;
36001;SDS011;22070;50.922;5.430;2022-07-05T03:03:14;4.10;;;3.00;;
36001;SDS011;22070;50.922;5.430;2022-07-05T03:05:40;5.07;;;2.70;;
36001;SDS011;22070;50.922;5.430;2022-07-05T03:08:06;4.07;;;3.22;;
36001;SDS011;22070;50.922;5.430;2022-07-05T03:10:33;4.72;;;2.72;;
36001;SDS011;22070;50.922;5.430;2022-07-05T03:12:59;6.38;;;2.58;;
36001;SDS011;22070;50.922;5.430;2022-07-05T03:15:25;2.80;;;2.60;;
36001;SDS011;22070;50.922;5.430;2022-07-05T03:17:51;4.68;;;3.17;;
36001;SDS011;22070;50.922;5.430;2022-07-05T03:20:16;5.00;;;2.90;;
36001;SDS011;22070;50.922;5.430;2022-07-05T03:22:42;2.85;;;2.65;;
36001;SDS011;22070;50.922;5.430;2022-07-05T03:25:08;4.18;;;2.97;;
36001;SDS011;22070;50.922;5.430;2022-07-05T03:27:34;3.00;;;2.70;;
36001;SDS011;22070;50.922;5.430;2022-07-05T03:30:00;5.38;;;2.97;;
36001;SDS011;22070;50.922;5.430;2022-07-05T03:32:26;3.80;;;3.40;;
36001;SDS011;22070;50.922;5.430;2022-07-05T03:34:51;6.05;;;3.00;;
36001;SDS011;22070;50.922;5.430;2022-07-05T03:37:17;4.53;;;3.30;;
36001;SDS011;22070;50.922;5.430;2022-07-05T03:39:43;6.00;;;3.17;;
36001;SDS011;22070;50.922;5.430;2022-07-05T03:42:08;3.85;;;3.38;;
36001;SDS011;22070;50.922;5.430;2022-07-05T03:44:34;4.18;;;3.35;;
36001;SDS011;22070;50.922;5.430;2022-07-05T03:46:59;4.97;;;3.97;;
36001;SDS011;22070;50.922;5.430;2022-07-05T03:49:25;4.90;;;3.38;;
36001;SDS011;22070;50.922;5.430;2022-07-05T03:51:51;4.38;;;3.58;;
36001;SDS011;22070;50.922;5.430;2022-07-05T03:54:17;5.80;;;3.83;;
36001;SDS011;22070;50.922;5.430;2022-07-05T03:56:43;5.53;;;3.60;;
36001;SDS011;22070;50.922;5.430;2022-07-05T03:59:08;3.60;;;3.30;;
36001;SDS011;22070;50.922;5.430;2022-07-05T04:01:34;3.45;;;3.10;;
36001;SDS011;22070;50.922;5.430;2022-07-05T04:04:00;6.78;;;3.60;;
36001;SDS011;22070;50.922;5.430;2022-07-05T04:06:25;4.88;;;3.10;;
36001;SDS011;22070;50.922;5.430;2022-07-05T04:08:51;4.15;;;2.97;;
36001;SDS011;22070;50.922;5.430;2022-07-05T04:11:16;4.50;;;3.25;;
36001;SDS011;22070;50.922;5.430;2022-07-05T04:13:42;4.93;;;3.85;;
36001;SDS011;22070;50.922;5.430;2022-07-05T04:16:08;4.32;;;3.47;;
36001;SDS011;22070;50.922;5.430;2022-07-05T04:18:34;5.32;;;3.75;;
36001;SDS011;22070;50.922;5.430;2022-07-05T04:21:00;6.55;;;3.60;;
36001;SDS011;22070;50.922;5.430;2022-07-05T04:23:29;4.43;;;3.20;;
36001;SDS011;22070;50.922;5.430;2022-07-05T04:25:55;8.18;;;3.38;;
36001;SDS011;22070;50.922;5.430;2022-07-05T04:28:21;5.68;;;3.45;;
36001;SDS011;22070;50.922;5.430;2022-07-05T04:30:46;4.97;;;3.20;;
36001;SDS011;22070;50.922;5.430;2022-07-05T04:33:12;6.75;;;3.42;;
36001;SDS011;22070;50.922;5.430;2022-07-05T04:35:38;4.82;;;3.95;;
36001;SDS011;22070;50.922;5.430;2022-07-05T04:38:04;7.82;;;3.60;;
36001;SDS011;22070;50.922;5.430;2022-07-05T04:40:29;7.22;;;3.53;;
36001;SDS011;22070;50.922;5.430;2022-07-05T04:42:55;7.38;;;3.50;;
36001;SDS011;22070;50.922;5.430;2022-07-05T04:45:21;6.50;;;3.40;;
36001;SDS011;22070;50.922;5.430;2022-07-05T04:47:47;6.88;;;3.83;;
36001;SDS011;22070;50.922;5.430;2022-07-05T04:50:12;3.95;;;3.40;;
36001;SDS011;22070;50.922;5.430;2022-07-05T04:52:38;11.63;;;4.93;;
36001;SDS011;22070;50.922;5.430;2022-07-05T04:55:04;5.18;;;4.18;;
36001;SDS011;22070;50.922;5.430;2022-07-05T04:57:37;5.72;;;4.30;;
36001;SDS011;22070;50.922;5.430;2022-07-05T05:00:06;6.67;;;4.67;;
36001;SDS011;22070;50.922;5.430;2022-07-05T05:02:36;5.93;;;4.68;;
36001;SDS011;22070;50.922;5.430;2022-07-05T05:05:03;8.05;;;4.50;;
36001;SDS011;22070;50.922;5.430;2022-07-05T05:07:29;10.70;;;5.40;;
36001;SDS011;22070;50.922;5.430;2022-07-05T05:09:55;7.50;;;4.80;;
36001;SDS011;22070;50.922;5.430;2022-07-05T05:12:20;8.48;;;5.47;;
36001;SDS011;22070;50.922;5.430;2022-07-05T05:17:13;6.83;;;4.43;;
36001;SDS011;22070;50.922;5.430;2022-07-05T05:19:39;8.05;;;4.82;;
36001;SDS011;22070;50.922;5.430;2022-07-05T05:22:04;12.52;;;5.10;;
36001;SDS011;22070;50.922;5.430;2022-07-05T05:24:30;6.35;;;4.82;;
36001;SDS011;22070;50.922;5.430;2022-07-05T05:26:59;6.68;;;4.82;;
36001;SDS011;22070;50.922;5.430;2022-07-05T05:29:27;7.13;;;5.18;;
36001;SDS011;22070;50.922;5.430;2022-07-05T05:31:53;7.38;;;5.45;;
36001;SDS011;22070;50.922;5.430;2022-07-05T05:34:19;5.82;;;4.93;;
36001;SDS011;22070;50.922;5.430;2022-07-05T05:36:45;5.80;;;5.05;;
36001;SDS011;22070;50.922;5.430;2022-07-05T05:39:12;9.18;;;5.40;;
36001;SDS011;22070;50.922;5.430;2022-07-05T05:41:38;10.65;;;5.43;;
36001;SDS011;22070;50.922;5.430;2022-07-05T05:44:03;5.50;;;4.95;;
36001;SDS011;22070;50.922;5.430;2022-07-05T05:46:29;6.45;;;5.25;;
36001;SDS011;22070;50.922;5.430;2022-07-05T05:48:55;6.87;;;4.70;;
36001;SDS011;22070;50.922;5.430;2022-07-05T05:51:21;8.30;;;5.10;;
36001;SDS011;22070;50.922;5.430;2022-07-05T05:53:46;8.30;;;5.25;;
36001;SDS011;22070;50.922;5.430;2022-07-05T05:56:12;11.40;;;5.50;;
36001;SDS011;22070;50.922;5.430;2022-07-05T05:58:38;7.20;;;5.40;;
36001;SDS011;22070;50.922;5.430;2022-07-05T06:01:04;8.03;;;5.50;;
36001;SDS011;22070;50.922;5.430;2022-07-05T06:03:30;9.10;;;5.27;;
36001;SDS011;22070;50.922;5.430;2022-07-05T06:05:55;6.90;;;5.10;;
36001;SDS011;22070;50.922;5.430;2022-07-05T06:08:21;5.78;;;5.15;;
36001;SDS011;22070;50.922;5.430;2022-07-05T06:10:47;7.15;;;4.60;;
36001;SDS011;22070;50.922;5.430;2022-07-05T06:13:13;4.70;;;3.15;;
36001;SDS011;22070;50.922;5.430;2022-07-05T06:15:39;9.50;;;4.82;;
36001;SDS011;22070;50.922;5.430;2022-07-05T06:18:08;9.70;;;5.20;;
36001;SDS011;22070;50.922;5.430;2022-07-05T06:20:35;6.00;;;4.75;;
36001;SDS011;22070;50.922;5.430;2022-07-05T06:23:02;9.55;;;5.05;;
36001;SDS011;22070;50.922;5.430;2022-07-05T06:25:29;6.22;;;4.38;;
36001;SDS011;22070;50.922;5.430;2022-07-05T06:30:22;8.73;;;5.27;;
36001;SDS011;22070;50.922;5.430;2022-07-05T06:32:48;6.30;;;5.05;;
36001;SDS011;22070;50.922;5.430;2022-07-05T06:35:16;8.05;;;5.00;;
36001;SDS011;22070;50.922;5.430;2022-07-05T06:40:13;8.50;;;5.25;;
36001;SDS011;22070;50.922;5.430;2022-07-05T06:42:45;6.28;;;4.82;;
36001;SDS011;22070;50.922;5.430;2022-07-05T06:45:11;8.15;;;4.72;;
36001;SDS011;22070;50.922;5.430;2022-07-05T06:47:37;7.97;;;4.80;;
36001;SDS011;22070;50.922;5.430;2022-07-05T06:50:03;7.72;;;4.75;;
36001;SDS011;22070;50.922;5.430;2022-07-05T06:52:30;7.80;;;4.88;;
36001;SDS011;22070;50.922;5.430;2022-07-05T06:54:57;7.10;;;4.95;;
36001;SDS011;22070;50.922;5.430;2022-07-05T06:57:24;6.32;;;4.53;;
36001;SDS011;22070;50.922;5.430;2022-07-05T06:59:50;6.50;;;4.43;;
36001;SDS011;22070;50.922;5.430;2022-07-05T07:02:16;4.68;;;3.58;;
36001;SDS011;22070;50.922;5.430;2022-07-05T07:04:42;4.93;;;3.83;;
36001;SDS011;22070;50.922;5.430;2022-07-05T07:07:08;8.10;;;2.77;;
36001;SDS011;22070;50.922;5.430;2022-07-05T07:09:52;2.97;;;2.58;;
36001;SDS011;22070;50.922;5.430;2022-07-05T07:12:20;5.05;;;2.95;;
36001;SDS011;22070;50.922;5.430;2022-07-05T07:14:46;5.57;;;2.83;;
36001;SDS011;22070;50.922;5.430;2022-07-05T07:17:11;3.50;;;3.00;;
36001;SDS011;22070;50.922;5.430;2022-07-05T07:19:37;6.80;;;2.80;;
36001;SDS011;22070;50.922;5.430;2022-07-05T07:22:03;4.93;;;3.90;;
36001;SDS011;22070;50.922;5.430;2022-07-05T07:24:28;5.77;;;3.90;;
36001;SDS011;22070;50.922;5.430;2022-07-05T07:26:54;8.00;;;3.83;;
36001;SDS011;22070;50.922;5.430;2022-07-05T07:29:33;7.45;;;3.88;;
36001;SDS011;22070;50.922;5.430;2022-07-05T07:32:01;4.20;;;3.78;;
36001;SDS011;22070;50.922;5.430;2022-07-05T07:34:28;5.25;;;3.17;;
36001;SDS011;22070;50.922;5.430;2022-07-05T07:36:54;6.15;;;3.45;;
36001;SDS011;22070;50.922;5.430;2022-07-05T07:39:20;5.78;;;3.38;;
36001;SDS011;22070;50.922;5.430;2022-07-05T07:41:46;7.93;;;3.37;;
36001;SDS011;22070;50.922;5.430;2022-07-05T07:44:12;7.47;;;3.10;;
36001;SDS011;22070;50.922;5.430;2022-07-05T07:46:38;7.40;;;3.00;;
36001;SDS011;22070;50.922;5.430;2022-07-05T07:49:09;13.57;;;3.95;;
36001;SDS011;22070;50.922;5.430;2022-07-05T07:51:36;4.65;;;3.15;;
36001;SDS011;22070;50.922;5.430;2022-07-05T07:54:02;5.95;;;3.50;;
36001;SDS011;22070;50.922;5.430;2022-07-05T07:56:28;4.90;;;3.50;;
36001;SDS011;22070;50.922;5.430;2022-07-05T07:58:54;5.47;;;3.58;;
36001;SDS011;22070;50.922;5.430;2022-07-05T08:01:20;6.43;;;2.73;;
36001;SDS011;22070;50.922;5.430;2022-07-05T08:03:47;6.75;;;2.97;;
36001;SDS011;22070;50.922;5.430;2022-07-05T08:06:13;6.53;;;3.00;;
36001;SDS011;22070;50.922;5.430;2022-07-05T08:08:41;4.70;;;3.42;;
36001;SDS011;22070;50.922;5.430;2022-07-05T08:11:09;5.53;;;2.90;;
36001;SDS011;22070;50.922;5.430;2022-07-05T08:13:36;5.88;;;2.70;;
36001;SDS011;22070;50.922;5.430;2022-07-05T08:16:04;4.18;;;2.50;;
36001;SDS011;22070;50.922;5.430;2022-07-05T08:18:30;3.60;;;2.83;;
36001;SDS011;22070;50.922;5.430;2022-07-05T08:21:14;3.95;;;2.75;;
36001;SDS011;22070;50.922;5.430;2022-07-05T08:24:09;5.25;;;1.83;;
36001;SDS011;22070;50.922;5.430;2022-07-05T08:26:37;4.10;;;2.50;;
36001;SDS011;22070;50.922;5.430;2022-07-05T08:29:06;2.97;;;1.95;;
36001;SDS011;22070;50.922;5.430;2022-07-05T08:31:35;4.38;;;2.30;;
36001;SDS011;22070;50.922;5.430;2022-07-05T08:34:02;1.60;;;1.33;;
36001;SDS011;22070;50.922;5.430;2022-07-05T08:36:28;3.33;;;1.40;;
36001;SDS011;22070;50.922;5.430;2022-07-05T08:38:54;3.30;;;2.23;;
36001;SDS011;22070;50.922;5.430;2022-07-05T08:41:20;3.83;;;2.07;;
36001;SDS011;22070;50.922;5.430;2022-07-05T08:43:47;2.20;;;2.00;;
36001;SDS011;22070;50.922;5.430;2022-07-05T08:51:13;3.65;;;2.45;;
36001;SDS011;22070;50.922;5.430;2022-07-05T08:53:52;3.75;;;2.40;;
36001;SDS011;22070;50.922;5.430;2022-07-05T08:56:18;2.65;;;1.67;;
36001;SDS011;22070;50.922;5.430;2022-07-05T08:58:44;2.72;;;1.67;;
36001;SDS011;22070;50.922;5.430;2022-07-05T09:01:11;3.25;;;1.85;;
36001;SDS011;22070;50.922;5.430;2022-07-05T09:03:47;5.25;;;2.50;;
36001;SDS011;22070;50.922;5.430;2022-07-05T09:06:17;6.68;;;2.58;;
36001;SDS011;22070;50.922;5.430;2022-07-05T09:08:47;2.40;;;1.85;;
36001;SDS011;22070;50.922;5.430;2022-07-05T09:11:16;2.40;;;1.50;;
36001;SDS011;22070;50.922;5.430;2022-07-05T09:13:49;2.53;;;1.85;;
36001;SDS011;22070;50.922;5.430;2022-07-05T09:16:16;6.00;;;1.55;;
36001;SDS011;22070;50.922;5.430;2022-07-05T09:18:45;3.20;;;1.33;;
36001;SDS011;22070;50.922;5.430;2022-07-05T09:21:18;3.00;;;1.63;;
36001;SDS011;22070;50.922;5.430;2022-07-05T09:23:55;5.53;;;1.70;;
36001;SDS011;22070;50.922;5.430;2022-07-05T09:29:02;1.65;;;1.33;;
36001;SDS011;22070;50.922;5.430;2022-07-05T09:31:33;3.22;;;1.60;;
36001;SDS011;22070;50.922;5.430;2022-07-05T09:34:09;3.72;;;1.60;;
36001;SDS011;22070;50.922;5.430;2022-07-05T09:44:51;4.13;;;1.38;;
36001;SDS011;22070;50.922;5.430;2022-07-05T09:47:20;3.10;;;1.70;;
36001;SDS011;22070;50.922;5.430;2022-07-05T09:49:47;3.17;;;1.70;;
36001;SDS011;22070;50.922;5.430;2022-07-05T09:55:18;2.97;;;1.60;;
36001;SDS011;22070;50.922;5.430;2022-07-05T09:57:45;2.13;;;1.50;;
36001;SDS011;22070;50.922;5.430;2022-07-05T10:00:13;3.03;;;1.67;;
36001;SDS011;22070;50.922;5.430;2022-07-05T10:05:17;5.18;;;1.92;;
36001;SDS011;22070;50.922;5.430;2022-07-05T10:07:54;3.58;;;1.60;;
36001;SDS011;22070;50.922;5.430;2022-07-05T10:10:29;2.05;;;1.40;;
36001;SDS011;22070;50.922;5.430;2022-07-05T10:12:59;4.85;;;1.73;;
36001;SDS011;22070;50.922;5.430;2022-07-05T10:15:28;1.20;;;1.13;;
36001;SDS011;22070;50.922;5.430;2022-07-05T10:23:07;3.50;;;1.38;;
36001;SDS011;22070;50.922;5.430;2022-07-05T10:25:35;2.60;;;1.50;;
36001;SDS011;22070;50.922;5.430;2022-07-05T10:28:02;2.97;;;1.33;;
36001;SDS011;22070;50.922;5.430;2022-07-05T10:30:28;2.35;;;1.40;;
36001;SDS011;22070;50.922;5.430;2022-07-05T10:32:55;2.85;;;1.20;;
36001;SDS011;22070;50.922;5.430;2022-07-05T10:35:21;1.80;;;1.10;;
36001;SDS011;22070;50.922;5.430;2022-07-05T10:37:48;5.00;;;1.38;;
36001;SDS011;22070;50.922;5.430;2022-07-05T10:40:14;3.38;;;1.27;;
36001;SDS011;22070;50.922;5.430;2022-07-05T10:42:43;3.30;;;1.50;;
36001;SDS011;22070;50.922;5.430;2022-07-05T10:58:29;5.32;;;1.45;;
36001;SDS011;22070;50.922;5.430;2022-07-05T11:03:44;2.97;;;1.20;;
36001;SDS011;22070;50.922;5.430;2022-07-05T11:06:20;2.67;;;1.27;;
36001;SDS011;22070;50.922;5.430;2022-07-05T11:11:24;3.05;;;1.20;;
36001;SDS011;22070;50.922;5.430;2022-07-05T11:13:52;7.38;;;1.67;;
36001;SDS011;22070;50.922;5.430;2022-07-05T11:19:08;2.08;;;1.30;;
36001;SDS011;22070;50.922;5.430;2022-07-05T11:21:35;2.88;;;1.50;;
36001;SDS011;22070;50.922;5.430;2022-07-05T11:24:21;3.63;;;1.23;;
36001;SDS011;22070;50.922;5.430;2022-07-05T11:26:47;4.45;;;1.48;;
36001;SDS011;22070;50.922;5.430;2022-07-05T11:32:09;2.15;;;1.08;;
36001;SDS011;22070;50.922;5.430;2022-07-05T11:34:38;3.97;;;1.42;;
36001;SDS011;22070;50.922;5.430;2022-07-05T11:42:35;1.98;;;1.38;;
36001;SDS011;22070;50.922;5.430;2022-07-05T11:45:10;6.60;;;1.30;;
36001;SDS011;22070;50.922;5.430;2022-07-05T11:50:03;2.03;;;1.00;;
36001;SDS011;22070;50.922;5.430;2022-07-05T11:52:30;1.10;;;1.00;;
36001;SDS011;22070;50.922;5.430;2022-07-05T11:54:57;2.20;;;1.38;;
36001;SDS011;22070;50.922;5.430;2022-07-05T11:57:24;1.60;;;1.10;;
36001;SDS011;22070;50.922;5.430;2022-07-05T11:59:50;1.85;;;1.10;;
36001;SDS011;22070;50.922;5.430;2022-07-05T12:04:46;2.35;;;1.25;;
36001;SDS011;22070;50.922;5.430;2022-07-05T12:07:24;2.92;;;1.45;;
36001;SDS011;22070;50.922;5.430;2022-07-05T12:09:53;1.88;;;1.50;;
36001;SDS011;22070;50.922;5.430;2022-07-05T12:12:37;2.88;;;1.30;;
36001;SDS011;22070;50.922;5.430;2022-07-05T12:15:13;2.55;;;1.48;;
36001;SDS011;22070;50.922;5.430;2022-07-05T12:20:15;3.47;;;1.13;;
36001;SDS011;22070;50.922;5.430;2022-07-05T12:22:46;1.95;;;1.60;;
36001;SDS011;22070;50.922;5.430;2022-07-05T12:25:21;4.00;;;1.35;;
36001;SDS011;22070;50.922;5.430;2022-07-05T12:30:14;1.45;;;1.35;;
36001;SDS011;22070;50.922;5.430;2022-07-05T12:33:00;2.60;;;1.25;;
36001;SDS011;22070;50.922;5.430;2022-07-05T12:38:09;3.42;;;1.30;;
36001;SDS011;22070;50.922;5.430;2022-07-05T12:40:57;1.90;;;1.42;;
36001;SDS011;22070;50.922;5.430;2022-07-05T12:43:25;2.80;;;1.60;;
36001;SDS011;22070;50.922;5.430;2022-07-05T12:45:59;3.45;;;1.58;;
36001;SDS011;22070;50.922;5.430;2022-07-05T12:50:58;1.50;;;1.40;;
36001;SDS011;22070;50.922;5.430;2022-07-05T12:53:24;2.25;;;1.30;;
36001;SDS011;22070;50.922;5.430;2022-07-05T12:56:09;1.63;;;1.20;;
36001;SDS011;22070;50.922;5.430;2022-07-05T12:58:55;1.85;;;1.52;;
36001;SDS011;22070;50.922;5.430;2022-07-05T13:01:25;2.13;;;1.35;;
36001;SDS011;22070;50.922;5.430;2022-07-05T13:04:07;2.47;;;1.55;;
36001;SDS011;22070;50.922;5.430;2022-07-05T13:06:39;2.33;;;1.42;;
36001;SDS011;22070;50.922;5.430;2022-07-05T13:12:06;1.98;;;1.70;;
36001;SDS011;22070;50.922;5.430;2022-07-05T13:14:34;5.00;;;1.30;;
36001;SDS011;22070;50.922;5.430;2022-07-05T13:17:00;2.55;;;1.50;;
36001;SDS011;22070;50.922;5.430;2022-07-05T13:19:26;1.83;;;1.47;;
36001;SDS011;22070;50.922;5.430;2022-07-05T13:21:52;3.40;;;1.70;;
36001;SDS011;22070;50.922;5.430;2022-07-05T13:24:17;1.37;;;1.27;;
36001;SDS011;22070;50.922;5.430;2022-07-05T13:26:43;3.00;;;1.50;;
36001;SDS011;22070;50.922;5.430;2022-07-05T13:29:09;3.03;;;1.37;;
36001;SDS011;22070;50.922;5.430;2022-07-05T13:31:35;3.37;;;1.37;;
36001;SDS011;22070;50.922;5.430;2022-07-05T13:34:01;1.50;;;1.40;;
36001;SDS011;22070;50.922;5.430;2022-07-05T13:36:27;1.70;;;1.60;;
36001;SDS011;22070;50.922;5.430;2022-07-05T13:38:53;2.80;;;1.50;;
36001;SDS011;22070;50.922;5.430;2022-07-05T13:41:19;6.77;;;1.70;;
36001;SDS011;22070;50.922;5.430;2022-07-05T13:43:44;4.43;;;2.00;;
36001;SDS011;22070;50.922;5.430;2022-07-05T13:46:13;3.73;;;1.77;;
36001;SDS011;22070;50.922;5.430;2022-07-05T13:48:40;4.57;;;1.90;;
36001;SDS011;22070;50.922;5.430;2022-07-05T13:51:06;3.50;;;1.67;;
36001;SDS011;22070;50.922;5.430;2022-07-05T13:53:32;3.60;;;1.60;;
36001;SDS011;22070;50.922;5.430;2022-07-05T13:55:58;1.75;;;1.60;;
36001;SDS011;22070;50.922;5.430;2022-07-05T13:58:23;2.80;;;1.60;;
36001;SDS011;22070;50.922;5.430;2022-07-05T14:00:49;13.63;;;5.13;;
36001;SDS011;22070;50.922;5.430;2022-07-05T14:03:14;2.90;;;1.70;;
36001;SDS011;22070;50.922;5.430;2022-07-05T14:05:41;3.92;;;1.75;;
36001;SDS011;22070;50.922;5.430;2022-07-05T14:08:09;3.35;;;2.10;;
36001;SDS011;22070;50.922;5.430;2022-07-05T14:10:38;3.28;;;2.40;;
36001;SDS011;22070;50.922;5.430;2022-07-05T14:13:04;8.90;;;3.65;;
36001;SDS011;22070;50.922;5.430;2022-07-05T14:15:30;6.53;;;2.28;;
36001;SDS011;22070;50.922;5.430;2022-07-05T14:17:56;3.27;;;2.07;;
36001;SDS011;22070;50.922;5.430;2022-07-05T14:20:24;2.33;;;2.03;;
36001;SDS011;22070;50.922;5.430;2022-07-05T14:22:50;5.18;;;2.13;;
36001;SDS011;22070;50.922;5.430;2022-07-05T14:25:16;3.67;;;2.03;;
36001;SDS011;22070;50.922;5.430;2022-07-05T14:27:41;3.60;;;2.20;;
36001;SDS011;22070;50.922;5.430;2022-07-05T14:30:08;3.33;;;2.40;;
36001;SDS011;22070;50.922;5.430;2022-07-05T14:32:35;2.90;;;2.55;;
36001;SDS011;22070;50.922;5.430;2022-07-05T14:35:01;5.85;;;2.65;;
36001;SDS011;22070;50.922;5.430;2022-07-05T14:39:53;2.88;;;2.50;;
36001;SDS011;22070;50.922;5.430;2022-07-05T14:42:19;6.07;;;2.97;;
36001;SDS011;22070;50.922;5.430;2022-07-05T14:44:44;4.33;;;2.67;;
36001;SDS011;22070;50.922;5.430;2022-07-05T14:47:10;5.67;;;3.00;;
36001;SDS011;22070;50.922;5.430;2022-07-05T14:49:36;4.53;;;2.57;;
36001;SDS011;22070;50.922;5.430;2022-07-05T14:52:02;2.40;;;2.20;;
36001;SDS011;22070;50.922;5.430;2022-07-05T14:54:27;4.23;;;2.37;;
36001;SDS011;22070;50.922;5.430;2022-07-05T14:56:53;4.33;;;2.10;;
36001;SDS011;22070;50.922;5.430;2022-07-05T14:59:19;6.23;;;2.30;;
36001;SDS011;22070;50.922;5.430;2022-07-05T15:01:44;5.30;;;2.20;;
36001;SDS011;22070;50.922;5.430;2022-07-05T15:04:10;4.03;;;2.13;;
36001;SDS011;22070;50.922;5.430;2022-07-05T15:06:35;3.70;;;1.80;;
36001;SDS011;22070;50.922;5.430;2022-07-05T15:09:01;4.57;;;2.17;;
36001;SDS011;22070;50.922;5.430;2022-07-05T15:11:27;2.10;;;1.70;;
36001;SDS011;22070;50.922;5.430;2022-07-05T15:13:54;2.53;;;1.40;;
36001;SDS011;22070;50.922;5.430;2022-07-05T15:16:20;3.70;;;1.60;;
36001;SDS011;22070;50.922;5.430;2022-07-05T15:18:45;3.03;;;2.00;;
36001;SDS011;22070;50.922;5.430;2022-07-05T15:21:11;3.83;;;2.17;;
36001;SDS011;22070;50.922;5.430;2022-07-05T15:23:37;2.53;;;1.63;;
36001;SDS011;22070;50.922;5.430;2022-07-05T15:26:02;3.90;;;2.00;;
36001;SDS011;22070;50.922;5.430;2022-07-05T15:28:28;1.97;;;1.40;;
36001;SDS011;22070;50.922;5.430;2022-07-05T15:30:54;4.00;;;1.80;;
36001;SDS011;22070;50.922;5.430;2022-07-05T15:33:21;3.08;;;2.03;;
36001;SDS011;22070;50.922;5.430;2022-07-05T15:35:52;1.55;;;1.33;;
36001;SDS011;22070;50.922;5.430;2022-07-05T15:38:22;2.40;;;1.40;;
36001;SDS011;22070;50.922;5.430;2022-07-05T15:40:48;8.10;;;1.30;;
36001;SDS011;22070;50.922;5.430;2022-07-05T15:43:14;2.43;;;1.53;;
36001;SDS011;22070;50.922;5.430;2022-07-05T15:45:40;1.97;;;1.27;;
36001;SDS011;22070;50.922;5.430;2022-07-05T15:48:05;2.83;;;1.20;;
36001;SDS011;22070;50.922;5.430;2022-07-05T15:50:31;2.60;;;1.77;;
36001;SDS011;22070;50.922;5.430;2022-07-05T15:52:56;3.40;;;1.30;;
36001;SDS011;22070;50.922;5.430;2022-07-05T15:55:22;3.60;;;1.23;;
36001;SDS011;22070;50.922;5.430;2022-07-05T15:57:48;2.20;;;1.20;;
36001;SDS011;22070;50.922;5.430;2022-07-05T16:00:14;1.80;;;1.17;;
36001;SDS011;22070;50.922;5.430;2022-07-05T16:02:40;4.13;;;1.17;;
36001;SDS011;22070;50.922;5.430;2022-07-05T16:05:06;1.03;;;0.90;;
36001;SDS011;22070;50.922;5.430;2022-07-05T16:07:32;1.48;;;0.90;;
36001;SDS011;22070;50.922;5.430;2022-07-05T16:09:57;2.30;;;1.10;;
36001;SDS011;22070;50.922;5.430;2022-07-05T16:12:23;3.60;;;1.00;;
36001;SDS011;22070;50.922;5.430;2022-07-05T16:14:49;3.75;;;1.30;;